Weather Data

Pearl Creek Farm: 8878 N Farm Road 75, Walnut Grove MO 65770

<== Previous Day (Thursday 10 Jan 2008) | Next Day (Saturday 12 Jan 2008) ==>

Summary Precipitation Data For Friday 11 January 2008

ElementValueUnits
Precipitation0"
Notes(none)
SourceSpringfield-Branson National Airport (SGF)

Summary Temperature Data For Friday 11 January 2008

ElementValueUnits
High Temperature48 oF
Low Temperature24 oF
Average Temperature34 oF
High Humidity88 %
Low Humidity42 %
Average Humidity68 %
SourceSpringfield-Branson National Airport (SGF)

Detail Temperature Data For Friday 11 January 2008

Date / TimeTemp (F)RH (%)Dew Pt (F)Report Date / TimeSource
2008-01-11 00:52:00 30 79 24.0 2017-12-29 19:14:24.89625 Springfield-Branson National Airport (SGF)
2008-01-11 01:52:00 29 78 23.0 2017-12-29 19:14:24.89625 Springfield-Branson National Airport (SGF)
2008-01-11 02:52:00 27 81 22.0 2017-12-29 19:14:24.89625 Springfield-Branson National Airport (SGF)
2008-01-11 03:52:00 25 85 21.0 2017-12-29 19:14:24.89625 Springfield-Branson National Airport (SGF)
2008-01-11 04:52:00 25 85 21.0 2017-12-29 19:14:24.89625 Springfield-Branson National Airport (SGF)
2008-01-11 05:52:00 26 81 21.0 2017-12-29 19:14:24.89625 Springfield-Branson National Airport (SGF)
2008-01-11 06:52:00 25 85 21.0 2017-12-29 19:14:24.89625 Springfield-Branson National Airport (SGF)
2008-01-11 07:52:00 24 88 21.0 2017-12-29 19:14:24.89625 Springfield-Branson National Airport (SGF)
2008-01-11 08:52:00 27 85 23.0 2017-12-29 19:14:24.89625 Springfield-Branson National Airport (SGF)
2008-01-11 09:52:00 30 82 25.0 2017-12-29 19:14:24.89625 Springfield-Branson National Airport (SGF)
2008-01-11 10:52:00 36 70 27.0 2017-12-29 19:14:24.89625 Springfield-Branson National Airport (SGF)
2008-01-11 11:52:00 41 53 25.0 2017-12-29 19:14:24.89625 Springfield-Branson National Airport (SGF)
2008-01-11 12:52:00 44 51 27.0 2017-12-29 19:14:24.89625 Springfield-Branson National Airport (SGF)
2008-01-11 13:52:00 46 46 26.0 2017-12-29 19:14:24.89625 Springfield-Branson National Airport (SGF)
2008-01-11 14:52:00 47 46 27.0 2017-12-29 19:14:24.89625 Springfield-Branson National Airport (SGF)
2008-01-11 15:52:00 48 42 26.0 2017-12-29 19:14:24.89625 Springfield-Branson National Airport (SGF)
2008-01-11 16:52:00 43 56 28.0 2017-12-29 19:14:24.89625 Springfield-Branson National Airport (SGF)
2008-01-11 17:52:00 40 55 25.0 2017-12-29 19:14:24.89625 Springfield-Branson National Airport (SGF)
2008-01-11 18:52:00 34 70 25.0 2017-12-29 19:14:24.89625 Springfield-Branson National Airport (SGF)
2008-01-11 19:52:00 34 70 25.0 2017-12-29 19:14:24.89625 Springfield-Branson National Airport (SGF)
2008-01-11 20:52:00 36 59 23.0 2017-12-29 19:14:24.89625 Springfield-Branson National Airport (SGF)
2008-01-11 21:52:00 35 61 23.0 2017-12-29 19:14:24.89625 Springfield-Branson National Airport (SGF)
2008-01-11 22:52:00 33 66 23.0 2017-12-29 19:14:24.89625 Springfield-Branson National Airport (SGF)
2008-01-11 23:52:00 33 66 23.0 2017-12-29 19:14:24.89625 Springfield-Branson National Airport (SGF)

A total of 24 rows are displayed.